CDT,Max TemperatureF,Mean TemperatureF,Min TemperatureF,Max Dew PointF,MeanDew PointF,Min DewpointF,Max Humidity, Mean Humidity, Min Humidity, Max Sea Level PressureIn, Mean Sea Level PressureIn, Min Sea Level PressureIn, Max VisibilityMiles, Mean VisibilityMiles, Min VisibilityMiles, Max Wind SpeedMPH, Mean Wind SpeedMPH, Max Gust SpeedMPH,PrecipitationIn, CloudCover, Events, WindDirDegrees
2013-4-1,81,62,59,62,60,57,94,90,84,30.04,30.01,29.98,10,7,2,12,3,,0.00,4,,153
2013-4-2,72,66,63,66,63,61,94,91,84,30.03,29.92,29.82,10,7,0,23,9,38,1.37,6,Fog-Rain-Thunderstorm,56
2013-4-3,64,58,53,63,57,51,94,88,72,30.12,29.96,29.86,10,10,6,17,9,24,0.20,7,Rain-Thunderstorm,342
2013-4-4,55,53,51,50,46,41,94,78,64,30.18,30.12,30.04,10,10,3,20,9,28,0.00,8,Rain,331
2013-4-5,71,57,43,51,45,41,93,64,44,30.28,30.22,30.13,10,10,7,9,3,,0.00,0,,11
2013-4-6,75,63,51,60,55,48,92,74,53,30.14,30.06,29.98,10,10,10,18,8,24,0.00,3,,166
2013-4-7,79,69,61,62,61,59,93,71,54,30.01,29.99,29.95,10,10,10,17,9,21,0.00,4,,154
2013-4-8,82,73,66,68,66,64,96,79,58,29.88,29.82,29.76,10,10,8,22,14,30,0.01,6,,145
2013-4-9,79,72,71,70,67,66,87,82,74,29.82,29.78,29.73,10,10,10,18,16,26,0.00,8,,150
2013-4-10,80,80,80,70,70,70,71,70,70,29.80,29.79,29.78,10,10,10,20,20,26,0.00,8,,195
2013-4-11,66,64,54,47,45,44,77,59,45,29.86,29.84,29.83,10,10,10,5,3,,0.00,0,,320
2013-4-12,79,47,46,54,47,45,96,94,89,30.00,29.95,29.93,10,10,10,5,2,,0.00,0,,10
2013-4-13,77,58,51,59,53,49,100,93,78,30.00,29.96,29.86,10,7,1,7,1,,0.00,0,,65
2013-4-14,84,63,55,67,60,55,100,92,83,29.83,29.76,29.70,10,8,2,15,2,,0.00,4,,150
2013-4-15,75,72,69,69,67,66,93,88,79,29.85,29.80,29.77,10,9,8,12,10,,0.00,7,,162
2013-4-16,,,,,,,,,,,,,,,,,,,,,,
2013-4-17,77,75,73,73,72,70,94,90,83,29.90,29.81,29.76,9,6,2,18,15,26,0.00,8,,147
2013-4-18,77,66,54,71,58,42,94,84,64,30.05,29.82,29.71,10,9,2,22,15,38,0.11,8,Rain,341
2013-4-19,66,56,46,41,33,27,63,46,24,30.26,30.19,30.08,10,10,10,22,13,31,0.00,0,,352
2013-4-20,70,54,39,46,40,35,93,59,33,30.26,30.19,30.10,10,10,10,15,4,18,0.00,1,,121
2013-4-21,73,62,50,55,52,47,89,67,52,30.17,30.12,30.06,10,10,10,10,6,,0.00,4,,90
2013-4-22,82,67,53,61,57,52,96,75,47,30.13,30.05,29.96,10,10,5,16,3,20,0.00,0,,148
2013-4-23,82,70,60,68,63,56,100,80,58,29.99,29.95,29.89,10,10,8,18,8,25,0.01,4,,152
2013-4-24,72,60,48,54,46,43,89,66,39,30.21,30.14,30.02,10,10,8,21,15,29,0.06,7,Rain,4
2013-4-25,73,66,59,58,47,40,73,53,32,30.31,30.23,30.18,10,10,10,17,10,22,0.00,7,,84
2013-4-26,82,74,66,68,65,57,90,80,60,30.21,30.15,30.09,10,10,7,18,11,25,0.00,6,,143
2013-4-27,80,71,64,72,67,63,96,89,74,30.13,30.05,29.98,10,7,0,31,7,44,6.17,8,Fog-Rain-Thunderstorm,131
2013-4-28,80,72,64,66,63,60,93,75,58,30.05,29.97,29.90,10,10,9,25,11,32,0.24,2,Rain,149
2013-4-29,82,74,66,70,66,64,100,88,56,29.95,29.90,29.85,10,7,0,14,4,,0.05,5,Fog-Rain-Thunderstorm,148
2013-4-30,82,74,66,68,66,62,97,83,56,29.85,29.81,29.75,10,8,4,14,5,,0.00,3,,130